Time;durP1;ratioP1;P1;durP2;ratioP2;P2;SDS_P1;SDS_P2;PMS_P1;PMS_P2;Temp;Humidity;BMP_temperature;BMP_pressure;BME280_temperature;BME280_humidity;BME280_pressure;Samples;Min_cycle;Max_cycle;Signal;HPM_P1;HPM_P2
2021/05/31 00:00:58;;;;;;;2.27;1.37;;;17.80;53.80;;;;;;5052134;28;20409;-83
2021/05/31 00:03:24;;;;;;;2.43;1.63;;;17.70;53.90;;;;;;5050609;28;20181;-83
2021/05/31 00:05:50;;;;;;;2.73;1.50;;;17.70;53.90;;;;;;5067413;28;20181;-82
2021/05/31 00:08:15;;;;;;;1.87;1.20;;;17.60;54.00;;;;;;5051351;28;20193;-82
2021/05/31 00:10:41;;;;;;;1.70;1.40;;;17.60;54.20;;;;;;5052061;28;20161;-83
2021/05/31 00:13:07;;;;;;;2.43;1.70;;;17.50;54.20;;;;;;5051875;28;20629;-82
2021/05/31 00:15:33;;;;;;;2.77;1.80;;;17.50;54.70;;;;;;5051272;28;20197;-83
2021/05/31 00:18:00;;;;;;;1.87;1.53;;;17.50;54.50;;;;;;5051384;28;20711;-82
2021/05/31 00:20:26;;;;;;;4.40;1.87;;;17.40;54.60;;;;;;5051149;28;20660;-82
2021/05/31 00:22:52;;;;;;;2.00;1.47;;;17.40;54.60;;;;;;5056894;28;20940;-83
2021/05/31 00:25:18;;;;;;;2.30;1.60;;;17.30;54.80;;;;;;5050220;28;20204;-81
2021/05/31 00:27:44;;;;;;;2.20;1.30;;;17.30;55.00;;;;;;5049830;28;20204;-82
2021/05/31 00:30:11;;;;;;;2.73;1.40;;;17.20;55.00;;;;;;5050283;28;20579;-82
2021/05/31 00:32:37;;;;;;;2.50;1.75;;;17.20;55.80;;;;;;5067031;28;20944;-81
2021/05/31 00:35:06;;;;;;;1.90;1.67;;;17.10;55.20;;;;;;5051441;28;20192;-81
2021/05/31 00:37:32;;;;;;;2.00;1.50;;;17.10;55.40;;;;;;5049742;28;20275;-82
2021/05/31 00:39:58;;;;;;;1.60;1.30;;;17.00;55.50;;;;;;5050263;28;20920;-82
2021/05/31 00:42:24;;;;;;;3.13;1.70;;;16.90;55.50;;;;;;5051575;28;20603;-82
2021/05/31 00:44:50;;;;;;;3.38;1.60;;;16.90;55.80;;;;;;5055630;28;20409;-82
2021/05/31 00:47:17;;;;;;;2.53;1.97;;;16.80;56.00;;;;;;5054350;28;20176;-82
2021/05/31 00:49:43;;;;;;;2.80;2.10;;;16.70;56.10;;;;;;5033732;28;20197;-82
2021/05/31 00:52:09;;;;;;;2.55;2.08;;;16.70;56.40;;;;;;5051611;28;20169;-82
2021/05/31 00:54:36;;;;;;;3.28;1.50;;;16.60;56.50;;;;;;5050188;28;20200;-83
2021/05/31 00:57:02;;;;;;;5.25;1.52;;;16.60;56.70;;;;;;5051395;28;20165;-78
2021/05/31 00:59:28;;;;;;;3.30;1.65;;;16.50;56.80;;;;;;5053106;28;20246;-78
2021/05/31 01:01:54;;;;;;;2.20;1.90;;;16.50;57.10;;;;;;5051293;28;20640;-78
2021/05/31 01:04:20;;;;;;;2.70;1.70;;;16.40;57.20;;;;;;5051164;28;20596;-79
2021/05/31 01:07:09;;;;;;;4.70;2.23;;;16.30;57.20;;;;;;5049649;28;20165;-78
2021/05/31 01:09:55;;;;;;;3.67;2.08;;;16.30;57.70;;;;;;5049768;28;20655;-78
2021/05/31 01:12:49;;;;;;;3.55;2.05;;;16.30;57.90;;;;;;5050027;28;20173;-78
2021/05/31 01:15:17;;;;;;;2.83;2.15;;;16.20;58.30;;;;;;5050274;28;20185;-78
2021/05/31 01:17:52;;;;;;;2.65;2.30;;;16.20;57.80;;;;;;5049493;28;20302;-79
2021/05/31 01:21:01;;;;;;;2.25;1.83;;;16.10;58.20;;;;;;5049911;28;20176;-78
2021/05/31 01:23:30;;;;;;;2.10;1.80;;;16.00;58.80;;;;;;5051933;28;20176;-78
2021/05/31 01:26:10;;;;;;;3.13;2.40;;;16.00;58.30;;;;;;5050619;28;20538;-79
2021/05/31 01:28:55;;;;;;;2.92;2.00;;;15.90;58.60;;;;;;5069809;28;20207;-78
2021/05/31 01:31:41;;;;;;;2.10;1.52;;;15.90;59.60;;;;;;5054685;28;20567;-79
2021/05/31 01:34:09;;;;;;;2.42;2.00;;;15.90;59.80;;;;;;5053585;28;20254;-79
2021/05/31 01:36:49;;;;;;;2.15;1.77;;;15.80;59.20;;;;;;5055289;28;20532;-79
2021/05/31 01:39:29;;;;;;;3.53;2.20;;;15.80;59.60;;;;;;5053528;28;20169;-79
2021/05/31 01:41:55;;;;;;;2.65;1.60;;;15.80;60.30;;;;;;5054651;28;20267;-79
2021/05/31 01:44:21;;;;;;;2.80;2.30;;;15.70;59.90;;;;;;5054510;28;20606;-79
2021/05/31 01:46:50;;;;;;;4.13;2.10;;;15.70;60.40;;;;;;5052703;28;20208;-79
2021/05/31 01:49:17;;;;;;;2.75;1.77;;;15.70;60.80;;;;;;5053134;28;20291;-79
2021/05/31 01:51:44;;;;;;;3.15;2.85;;;15.60;61.00;;;;;;5053441;28;20615;-79
2021/05/31 01:54:12;;;;;;;2.67;2.38;;;15.60;61.40;;;;;;5053105;28;20274;-79
2021/05/31 01:56:40;;;;;;;2.53;2.20;;;15.60;61.70;;;;;;5053793;28;20173;-79
2021/05/31 01:59:06;;;;;;;3.03;2.72;;;15.60;62.00;;;;;;5053185;28;20378;-79
2021/05/31 02:01:33;;;;;;;6.03;3.00;;;15.50;62.40;;;;;;5054135;28;20169;-79
2021/05/31 02:03:59;;;;;;;3.90;2.10;;;15.50;63.00;;;;;;5054342;28;20209;-79
2021/05/31 02:06:25;;;;;;;2.92;2.50;;;15.50;63.50;;;;;;5053703;28;20176;-78
2021/05/31 02:08:52;;;;;;;2.88;2.50;;;15.50;63.90;;;;;;5036347;28;20282;-78
2021/05/31 02:11:43;;;;;;;3.80;2.33;;;15.40;64.20;;;;;;5052899;28;20573;-78
2021/05/31 02:14:15;;;;;;;2.60;2.35;;;15.40;65.60;;;;;;5053727;28;20583;-78
2021/05/31 02:16:58;;;;;;;2.85;2.05;;;15.40;65.80;;;;;;5053497;28;20169;-78
2021/05/31 02:19:26;;;;;;;3.83;2.33;;;15.40;66.30;;;;;;5053904;28;20198;-78
2021/05/31 02:21:53;;;;;;;3.10;2.80;;;15.40;66.30;;;;;;5052727;28;20204;-78
2021/05/31 02:24:23;;;;;;;2.97;2.15;;;15.40;66.70;;;;;;5052453;28;20196;-78
2021/05/31 02:26:49;;;;;;;3.28;2.83;;;15.30;67.10;;;;;;5053330;28;20161;-78
2021/05/31 02:29:15;;;;;;;2.20;1.98;;;15.30;67.70;;;;;;5053748;28;20197;-78
2021/05/31 02:31:42;;;;;;;3.67;2.10;;;15.30;68.30;;;;;;5053579;28;20202;-78
2021/05/31 02:34:08;;;;;;;2.28;2.08;;;15.20;68.50;;;;;;5053582;28;20188;-78
2021/05/31 02:36:35;;;;;;;3.60;2.20;;;15.20;69.30;;;;;;5051820;28;20157;-78
2021/05/31 02:39:01;;;;;;;4.05;2.47;;;15.20;70.00;;;;;;5053181;28;20161;-78
2021/05/31 02:41:26;;;;;;;2.60;2.00;;;15.20;70.50;;;;;;5052196;28;20215;-78
2021/05/31 02:43:52;;;;;;;3.73;2.53;;;15.10;71.00;;;;;;5051872;28;20579;-79
2021/05/31 02:46:21;;;;;;;2.63;2.37;;;15.10;71.60;;;;;;5053016;28;20603;-78
2021/05/31 02:48:46;;;;;;;4.68;2.33;;;15.00;72.00;;;;;;5054104;28;20197;-78
2021/05/31 02:51:12;;;;;;;2.67;1.93;;;15.00;72.60;;;;;;5068807;28;20169;-79
2021/05/31 02:53:38;;;;;;;4.00;2.10;;;15.00;73.10;;;;;;5051776;28;20168;-78
2021/05/31 02:56:04;;;;;;;4.10;2.33;;;15.00;73.80;;;;;;5053262;28;20180;-78
2021/05/31 02:58:30;;;;;;;2.53;2.20;;;15.00;74.40;;;;;;5052826;28;20242;-78
2021/05/31 03:00:55;;;;;;;3.33;2.17;;;14.90;75.30;;;;;;5051959;28;20594;-79
2021/05/31 03:03:21;;;;;;;2.83;2.50;;;15.00;75.70;;;;;;5053208;28;20582;-78
2021/05/31 03:05:47;;;;;;;2.50;1.97;;;14.90;76.10;;;;;;5052951;28;20644;-78
2021/05/31 03:08:13;;;;;;;2.80;2.30;;;14.90;76.90;;;;;;5052611;28;20262;-78
2021/05/31 03:10:38;;;;;;;4.60;2.33;;;14.90;77.00;;;;;;5052968;28;20165;-78
2021/05/31 03:13:04;;;;;;;4.40;2.47;;;14.90;77.60;;;;;;5052757;28;20176;-78
2021/05/31 03:15:30;;;;;;;2.73;2.53;;;14.80;77.90;;;;;;5052574;28;20197;-78
2021/05/31 03:17:56;;;;;;;2.53;2.33;;;14.80;78.50;;;;;;5067799;28;20583;-78
2021/05/31 03:20:26;;;;;;;2.47;2.00;;;14.80;79.20;;;;;;5051381;28;20595;-78
2021/05/31 03:22:54;;;;;;;3.85;2.38;;;14.80;79.80;;;;;;5052705;28;20729;-78
2021/05/31 03:25:20;;;;;;;3.05;2.58;;;14.80;80.00;;;;;;5051380;28;20611;-79
2021/05/31 03:27:46;;;;;;;3.03;2.20;;;14.80;80.70;;;;;;5050932;28;20288;-79
2021/05/31 03:30:14;;;;;;;3.03;2.60;;;14.80;81.20;;;;;;5052372;28;20570;-78
2021/05/31 03:32:41;;;;;;;3.65;2.70;;;14.80;82.00;;;;;;5052237;28;20170;-78
2021/05/31 03:35:09;;;;;;;3.00;2.40;;;14.70;82.50;;;;;;5051162;28;20592;-78
2021/05/31 03:37:35;;;;;;;2.88;2.10;;;14.70;83.40;;;;;;5051836;28;20525;-78
2021/05/31 03:40:01;;;;;;;2.53;2.30;;;14.70;83.90;;;;;;5052470;28;20494;-78
2021/05/31 03:42:27;;;;;;;6.00;2.30;;;14.70;84.40;;;;;;5051145;28;20184;-78
2021/05/31 03:44:53;;;;;;;3.17;2.80;;;14.70;84.70;;;;;;5052215;28;20189;-78
2021/05/31 03:47:18;;;;;;;4.60;2.50;;;14.70;85.00;;;;;;5051871;28;20245;-78
2021/05/31 03:49:44;;;;;;;2.90;2.70;;;14.70;85.50;;;;;;5050202;28;20556;-78
2021/05/31 03:52:10;;;;;;;4.60;2.70;;;14.70;86.20;;;;;;5052169;28;20248;-78
2021/05/31 03:54:36;;;;;;;3.33;2.60;;;14.70;86.90;;;;;;5051973;28;20197;-78
2021/05/31 03:57:02;;;;;;;3.67;2.13;;;14.70;87.40;;;;;;5051817;28;20621;-79
2021/05/31 03:59:29;;;;;;;6.68;3.45;;;14.70;87.80;;;;;;5051991;28;20176;-78
2021/05/31 04:01:54;;;;;;;2.65;2.00;;;14.70;88.40;;;;;;5050655;28;20181;-78
2021/05/31 04:04:21;;;;;;;4.27;3.27;;;14.80;88.80;;;;;;5054018;28;20207;-79
2021/05/31 04:12:01;;;;;;;3.35;3.05;;;14.80;89.50;;;;;;5051840;28;20242;-79
2021/05/31 04:14:27;;;;;;;4.65;4.25;;;14.80;89.70;;;;;;5050308;28;20192;-79
2021/05/31 04:16:56;;;;;;;3.90;2.78;;;14.80;90.10;;;;;;5051225;28;20165;-79
2021/05/31 04:19:24;;;;;;;4.78;3.42;;;14.80;90.50;;;;;;5051663;28;20180;-80
2021/05/31 04:21:52;;;;;;;3.58;2.80;;;14.90;90.70;;;;;;5050628;28;20169;-80
2021/05/31 04:24:18;;;;;;;4.30;2.95;;;14.90;90.80;;;;;;5051660;28;20189;-79
2021/05/31 04:26:46;;;;;;;3.53;2.40;;;15.00;91.10;;;;;;5051373;28;20169;-78
2021/05/31 04:29:14;;;;;;;3.85;2.92;;;15.10;91.30;;;;;;5051406;28;20692;-78
2021/05/31 04:31:40;;;;;;;3.85;2.70;;;15.20;91.70;;;;;;5051634;28;20165;-78
2021/05/31 04:34:08;;;;;;;2.95;2.65;;;15.30;91.90;;;;;;5051482;28;21067;-77
2021/05/31 04:36:34;;;;;;;3.67;2.72;;;15.40;92.20;;;;;;5049818;28;20226;-77
2021/05/31 04:39:06;;;;;;;4.22;2.53;;;15.50;92.00;;;;;;5050284;28;20236;-78
2021/05/31 04:41:32;;;;;;;3.95;2.42;;;15.50;91.90;;;;;;5052558;28;20177;-78
2021/05/31 04:43:58;;;;;;;4.18;3.00;;;15.60;92.00;;;;;;5051231;28;20188;-78
2021/05/31 04:46:24;;;;;;;3.67;2.87;;;15.70;92.20;;;;;;5051090;28;20173;-78
2021/05/31 04:48:49;;;;;;;3.33;2.60;;;15.80;92.60;;;;;;5033333;28;20622;-78
2021/05/31 04:51:15;;;;;;;3.83;2.90;;;16.10;93.30;;;;;;5051456;28;20169;-78
2021/05/31 04:53:41;;;;;;;5.03;2.33;;;16.50;93.80;;;;;;5051148;28;20260;-79
2021/05/31 04:56:09;;;;;;;2.50;2.30;;;16.80;93.80;;;;;;5051466;28;20161;-79
2021/05/31 04:58:35;;;;;;;3.13;2.20;;;17.10;93.60;;;;;;5050908;28;20662;-79
2021/05/31 05:01:01;;;;;;;2.90;2.47;;;17.50;93.70;;;;;;5053150;28;20985;-79
2021/05/31 05:03:27;;;;;;;4.13;2.43;;;18.00;93.80;;;;;;5070719;28;20183;-80
2021/05/31 05:05:55;;;;;;;2.97;2.67;;;18.40;93.40;;;;;;5055304;28;20599;-79
2021/05/31 05:08:22;;;;;;;5.60;2.80;;;18.80;93.00;;;;;;5054782;28;20954;-78
2021/05/31 05:10:50;;;;;;;2.40;2.03;;;19.20;92.60;;;;;;5055190;28;20161;-78
2021/05/31 05:13:15;;;;;;;4.60;3.00;;;19.50;92.10;;;;;;5053994;28;20563;-79
2021/05/31 05:15:41;;;;;;;3.20;2.90;;;19.70;91.50;;;;;;5055362;28;20599;-78
2021/05/31 05:18:07;;;;;;;3.80;2.53;;;19.90;91.10;;;;;;5054711;28;20244;-79
2021/05/31 05:20:34;;;;;;;3.97;2.67;;;20.00;90.70;;;;;;5053888;28;20173;-81
2021/05/31 05:23:00;;;;;;;4.37;2.80;;;20.10;90.20;;;;;;5054855;28;20177;-80
2021/05/31 05:25:27;;;;;;;3.40;2.37;;;20.30;90.00;;;;;;5064699;28;20650;-79
2021/05/31 05:27:56;;;;;;;2.97;2.43;;;20.50;89.50;;;;;;5073742;28;21021;-80
2021/05/31 05:30:25;;;;;;;3.20;2.90;;;20.60;89.30;;;;;;5060207;28;20591;-79
2021/05/31 05:32:52;;;;;;;3.87;3.47;;;20.90;89.00;;;;;;5071007;28;20594;-79
2021/05/31 05:35:27;;;;;;;3.30;3.00;;;21.10;88.50;;;;;;5074566;28;20668;-79
2021/05/31 05:48:29;;;;;;;2.63;2.03;;;21.60;83.90;;;;;;5052782;28;20959;-77
2021/05/31 05:51:09;;;;;;;3.80;2.20;;;22.00;84.20;;;;;;5053704;28;20598;-76
2021/05/31 05:53:37;;;;;;;3.10;2.20;;;22.40;85.00;;;;;;5065928;28;20592;-77
2021/05/31 05:56:14;;;;;;;3.07;2.67;;;23.20;85.40;;;;;;5074283;28;20574;-77
2021/05/31 05:58:40;;;;;;;4.10;1.87;;;23.70;80.10;;;;;;5072797;28;21106;-78
2021/05/31 06:01:08;;;;;;;3.20;1.73;;;24.40;82.80;;;;;;5057632;28;20613;-75
2021/05/31 06:03:34;;;;;;;5.00;2.40;;;25.20;82.40;;;;;;5054025;28;20265;-76
2021/05/31 06:06:00;;;;;;;2.73;2.03;;;25.90;80.90;;;;;;5053876;28;20599;-77
2021/05/31 06:08:29;;;;;;;2.53;1.70;;;26.80;78.60;;;;;;5034939;28;20679;-77
2021/05/31 06:10:55;;;;;;;3.70;1.60;;;27.60;76.90;;;;;;5059333;28;20619;-78
2021/05/31 06:13:23;;;;;;;2.00;1.60;;;28.50;75.00;;;;;;5056518;28;20623;-78
2021/05/31 06:15:49;;;;;;;3.43;1.67;;;29.30;72.50;;;;;;5069466;28;20603;-78
2021/05/31 06:18:15;;;;;;;3.30;1.60;;;29.90;68.80;;;;;;5061982;28;20586;-77
2021/05/31 06:20:40;;;;;;;3.70;1.90;;;30.50;65.80;;;;;;5064654;28;20173;-76
2021/05/31 06:23:11;;;;;;;2.17;1.50;;;30.80;60.80;;;;;;5061598;28;20173;-77
2021/05/31 06:25:37;;;;;;;4.07;1.43;;;31.20;59.50;;;;;;5055442;28;20211;-76
2021/05/31 06:28:05;;;;;;;4.10;1.80;;;31.80;58.60;;;;;;5055557;28;20654;-76
2021/05/31 06:30:32;;;;;;;7.53;1.93;;;32.30;57.50;;;;;;5060986;28;20710;-80
2021/05/31 06:32:58;;;;;;;2.93;1.70;;;32.60;54.90;;;;;;5019835;28;20583;-79
2021/05/31 06:35:25;;;;;;;2.63;1.70;;;32.80;54.40;;;;;;5053148;28;20696;-78
2021/05/31 06:37:52;;;;;;;3.00;1.67;;;33.00;52.00;;;;;;5035247;28;20268;-78
2021/05/31 06:40:18;;;;;;;3.17;1.87;;;33.30;51.80;;;;;;5073220;28;20585;-77
2021/05/31 06:42:46;;;;;;;3.93;1.50;;;33.60;51.40;;;;;;5074105;28;20673;-76
2021/05/31 06:45:23;;;;;;;4.07;1.70;;;34.00;51.10;;;;;;5072988;28;20610;-76
2021/05/31 06:47:50;;;;;;;2.37;1.43;;;34.50;49.90;;;;;;5071367;28;20595;-78
2021/05/31 06:50:16;;;;;;;2.37;1.63;;;34.80;48.60;;;;;;5071714;28;20574;-77
2021/05/31 06:52:42;;;;;;;2.60;1.47;;;35.10;48.50;;;;;;5071518;28;20631;-76
2021/05/31 06:55:08;;;;;;;2.50;1.47;;;35.30;47.20;;;;;;5071252;28;20653;-76
2021/05/31 06:57:35;;;;;;;2.93;1.80;;;35.50;47.20;;;;;;5072564;28;20697;-77
2021/05/31 07:00:01;;;;;;;2.60;1.60;;;35.90;46.40;;;;;;5072286;28;20953;-77
2021/05/31 07:02:27;;;;;;;1.93;1.40;;;36.10;45.90;;;;;;5071262;28;20582;-78
2021/05/31 07:04:52;;;;;;;2.93;1.73;;;36.50;45.60;;;;;;5072499;28;20201;-79
2021/05/31 07:07:22;;;;;;;1.70;1.23;;;36.90;45.00;;;;;;5072465;28;20247;-78
2021/05/31 07:09:48;;;;;;;2.60;1.43;;;37.30;44.20;;;;;;5075009;28;20215;-77
2021/05/31 07:12:17;;;;;;;1.80;1.20;;;37.70;43.50;;;;;;5070305;28;20674;-79
2021/05/31 07:14:46;;;;;;;1.90;1.40;;;37.60;42.30;;;;;;5072601;28;21057;-77
2021/05/31 07:17:15;;;;;;;2.20;1.40;;;37.40;41.40;;;;;;5070365;28;20586;-78
2021/05/31 07:19:44;;;;;;;2.87;1.70;;;37.40;40.70;;;;;;5072534;28;20586;-77
2021/05/31 07:22:19;;;;;;;2.23;1.23;;;37.50;40.60;;;;;;5067226;28;20605;-78
2021/05/31 07:24:45;;;;;;;1.90;1.47;;;37.70;40.40;;;;;;5051990;28;20603;-78
2021/05/31 07:27:11;;;;;;;4.23;1.50;;;37.60;40.00;;;;;;5059335;28;20670;-78
2021/05/31 07:29:38;;;;;;;2.33;1.70;;;37.70;39.70;;;;;;5053771;28;20281;-77
2021/05/31 07:32:07;;;;;;;2.50;1.40;;;37.70;39.10;;;;;;5072334;28;20558;-77
2021/05/31 07:34:33;;;;;;;1.83;1.30;;;37.50;38.50;;;;;;5071368;28;20652;-78
2021/05/31 07:36:59;;;;;;;2.23;1.37;;;37.70;39.00;;;;;;5071118;28;20808;-78
2021/05/31 07:39:25;;;;;;;2.30;1.50;;;37.80;38.30;;;;;;5071109;28;20587;-77
2021/05/31 07:41:52;;;;;;;1.93;1.50;;;37.70;38.10;;;;;;5070637;28;20593;-78
2021/05/31 07:44:18;;;;;;;1.83;1.20;;;37.70;37.70;;;;;;5072706;28;20610;-77
2021/05/31 07:46:44;;;;;;;2.43;1.30;;;37.60;37.50;;;;;;5055286;28;20909;-78
2021/05/31 07:49:10;;;;;;;2.33;1.20;;;37.50;37.20;;;;;;5070960;28;20647;-78
2021/05/31 07:51:41;;;;;;;3.90;1.70;;;37.70;37.50;;;;;;5071420;28;20562;-78
2021/05/31 07:54:07;;;;;;;2.50;1.30;;;38.00;37.80;;;;;;5070577;28;20192;-78
2021/05/31 07:56:33;;;;;;;1.93;1.20;;;38.40;37.80;;;;;;5071513;28;20697;-79
2021/05/31 07:58:58;;;;;;;6.13;1.60;;;38.80;37.30;;;;;;5072088;28;20577;-79
2021/05/31 08:01:25;;;;;;;4.87;1.33;;;39.00;36.80;;;;;;5071468;28;20868;-79
2021/05/31 08:03:51;;;;;;;2.20;1.50;;;39.30;36.70;;;;;;5070539;28;20191;-79
2021/05/31 08:06:16;;;;;;;1.70;1.13;;;39.60;36.10;;;;;;5071662;28;20559;-78
2021/05/31 08:08:43;;;;;;;1.70;1.00;;;39.90;36.00;;;;;;5071401;28;20183;-78
2021/05/31 08:11:10;;;;;;;3.40;1.63;;;40.20;35.60;;;;;;5072119;28;20571;-79
2021/05/31 08:13:36;;;;;;;3.80;1.67;;;40.50;35.50;;;;;;5070260;28;20578;-78
2021/05/31 08:16:03;;;;;;;2.27;1.20;;;40.70;34.60;;;;;;5071754;28;20645;-79
2021/05/31 08:18:29;;;;;;;1.73;1.03;;;40.50;34.40;;;;;;5071410;28;20601;-79
2021/05/31 08:20:54;;;;;;;1.53;1.10;;;40.50;34.10;;;;;;5071590;28;21149;-80
2021/05/31 08:23:20;;;;;;;2.00;1.30;;;40.60;33.80;;;;;;5072730;28;20582;-79
2021/05/31 08:25:47;;;;;;;1.90;1.23;;;40.60;33.20;;;;;;5070284;28;20184;-78
2021/05/31 08:28:12;;;;;;;2.70;1.40;;;40.60;32.60;;;;;;5071428;28;20523;-79
2021/05/31 08:30:41;;;;;;;2.40;1.53;;;40.70;33.00;;;;;;5071757;28;20567;-79
2021/05/31 08:33:08;;;;;;;2.13;1.13;;;40.80;32.40;;;;;;5071532;28;20165;-80
2021/05/31 08:35:38;;;;;;;2.77;1.57;;;41.00;32.30;;;;;;5071444;28;20590;-79
2021/05/31 08:38:04;;;;;;;2.13;1.23;;;41.20;31.90;;;;;;5070988;28;20602;-78
2021/05/31 08:40:30;;;;;;;1.37;0.90;;;41.30;31.50;;;;;;5074183;28;20563;-78
2021/05/31 08:42:56;;;;;;;1.83;1.20;;;41.30;31.40;;;;;;5056963;28;20216;-78
2021/05/31 08:45:24;;;;;;;2.13;1.00;;;41.20;30.60;;;;;;5049940;28;20630;-77
2021/05/31 08:47:52;;;;;;;2.60;1.43;;;40.80;30.30;;;;;;5050807;28;20629;-78
2021/05/31 08:50:21;;;;;;;1.70;1.10;;;40.60;30.40;;;;;;5051213;28;20578;-78
2021/05/31 08:52:48;;;;;;;4.10;1.20;;;40.50;30.30;;;;;;5049746;28;20575;-77
2021/05/31 08:55:16;;;;;;;2.17;1.00;;;40.50;30.70;;;;;;5033223;28;20646;-77
2021/05/31 08:57:42;;;;;;;2.43;1.20;;;40.50;30.50;;;;;;5050658;28;20591;-77
2021/05/31 09:00:12;;;;;;;1.87;0.90;;;40.80;30.70;;;;;;5054506;28;20606;-79
2021/05/31 09:02:39;;;;;;;2.10;1.30;;;41.00;30.80;;;;;;5050865;28;20564;-79
2021/05/31 09:05:06;;;;;;;2.93;1.43;;;41.20;30.40;;;;;;5050869;28;20748;-78
2021/05/31 09:07:33;;;;;;;2.00;1.40;;;41.10;29.90;;;;;;5049327;28;20560;-79
2021/05/31 09:10:02;;;;;;;1.83;1.03;;;41.00;29.80;;;;;;5033241;28;21195;-78
2021/05/31 09:12:33;;;;;;;2.00;0.90;;;41.20;29.70;;;;;;5057329;28;20729;-79
2021/05/31 09:15:18;;;;;;;1.50;1.20;;;41.30;29.60;;;;;;5070647;28;20613;-77
2021/05/31 09:17:47;;;;;;;1.40;1.00;;;41.50;29.80;;;;;;5070185;28;20953;-77
2021/05/31 09:20:13;;;;;;;1.77;1.00;;;41.70;29.80;;;;;;5070801;28;20728;-79
2021/05/31 09:22:49;;;;;;;2.57;1.50;;;41.80;29.80;;;;;;5070737;28;20606;-78
2021/05/31 09:25:29;;;;;;;1.60;1.00;;;42.10;29.70;;;;;;5070137;28;20617;-78
2021/05/31 09:27:55;;;;;;;1.80;1.10;;;42.30;29.30;;;;;;5054436;28;20590;-77
2021/05/31 09:30:51;;;;;;;4.33;1.47;;;42.30;29.50;;;;;;5065253;28;20925;-79
2021/05/31 09:33:17;;;;;;;3.70;1.20;;;42.40;27.90;;;;;;5050305;28;20668;-79
2021/05/31 09:35:44;;;;;;;1.50;1.20;;;41.90;28.40;;;;;;5064754;28;20709;-79
2021/05/31 09:38:13;;;;;;;2.67;1.33;;;41.40;27.90;;;;;;5070187;28;20629;-78
2021/05/31 09:40:48;;;;;;;2.70;1.40;;;41.00;28.10;;;;;;5070749;28;20575;-79
2021/05/31 09:43:16;;;;;;;4.17;1.30;;;40.80;28.30;;;;;;5070239;28;20921;-78
2021/05/31 09:45:48;;;;;;;3.77;1.43;;;40.80;28.60;;;;;;5054386;28;21025;-77
2021/05/31 09:48:14;;;;;;;3.60;1.03;;;40.90;28.50;;;;;;5072088;28;20586;-77
2021/05/31 09:50:58;;;;;;;1.60;0.93;;;41.00;28.50;;;;;;5072756;28;20574;-77
2021/05/31 09:53:35;;;;;;;2.00;1.20;;;40.70;28.20;;;;;;5074072;28;20613;-77
2021/05/31 09:56:12;;;;;;;3.10;1.50;;;40.60;28.20;;;;;;5072759;28;20663;-77
2021/05/31 09:58:49;;;;;;;2.00;1.80;;;40.50;27.60;;;;;;5073727;28;20617;-76
2021/05/31 10:01:15;;;;;;;2.73;1.80;;;40.50;27.90;;;;;;5074074;28;20577;-76
2021/05/31 10:03:55;;;;;;;3.47;1.47;;;40.50;28.90;;;;;;5073615;28;20958;-79
2021/05/31 10:06:38;;;;;;;3.20;1.57;;;40.70;29.20;;;;;;5066616;28;20206;-78
2021/05/31 10:09:05;;;;;;;1.73;1.33;;;41.00;28.90;;;;;;5073632;28;20634;-78
2021/05/31 10:11:31;;;;;;;2.40;1.37;;;41.20;29.00;;;;;;5071041;28;20574;-77
2021/05/31 10:13:57;;;;;;;2.00;1.57;;;41.30;28.60;;;;;;5074491;28;20614;-77
2021/05/31 10:16:23;;;;;;;1.77;1.33;;;41.10;28.10;;;;;;5072119;28;20582;-78
2021/05/31 10:18:51;;;;;;;2.03;1.40;;;40.80;28.50;;;;;;5072385;28;20637;-78
2021/05/31 10:21:17;;;;;;;2.30;1.60;;;40.70;28.60;;;;;;5068681;28;20580;-78
2021/05/31 10:23:43;;;;;;;2.00;1.30;;;40.60;28.50;;;;;;5052400;28;20567;-77
2021/05/31 10:26:11;;;;;;;3.00;1.67;;;40.60;28.60;;;;;;5052003;28;20169;-78
2021/05/31 10:28:41;;;;;;;2.70;1.10;;;40.70;28.50;;;;;;5052830;28;20177;-78
2021/05/31 10:31:09;;;;;;;6.17;2.80;;;40.50;28.40;;;;;;5034704;28;20594;-79
2021/05/31 10:33:39;;;;;;;2.80;1.60;;;40.50;28.30;;;;;;5051521;28;20903;-78
2021/05/31 10:36:19;;;;;;;1.93;1.57;;;40.00;28.00;;;;;;5052689;28;20909;-76
2021/05/31 10:38:47;;;;;;;2.10;1.50;;;39.50;28.20;;;;;;5051557;28;20650;-76
2021/05/31 10:41:20;;;;;;;2.20;1.80;;;39.30;28.40;;;;;;5051781;28;20567;-78
2021/05/31 10:43:50;;;;;;;1.60;1.50;;;39.10;28.40;;;;;;5051989;28;20629;-75
2021/05/31 10:46:21;;;;;;;2.80;1.40;;;38.70;28.20;;;;;;5052746;28;20613;-77
2021/05/31 10:48:52;;;;;;;3.40;1.90;;;38.50;28.90;;;;;;5052970;28;21242;-77
2021/05/31 10:51:31;;;;;;;2.00;1.57;;;38.10;28.70;;;;;;5052674;28;20563;-78
2021/05/31 10:54:11;;;;;;;1.90;1.70;;;37.60;29.40;;;;;;5050673;28;20607;-78
2021/05/31 10:56:37;;;;;;;1.70;1.53;;;37.10;29.40;;;;;;5052328;28;20563;-78
2021/05/31 10:59:03;;;;;;;3.40;1.70;;;37.00;29.50;;;;;;5051170;28;20708;-78
2021/05/31 11:01:32;;;;;;;4.33;1.60;;;37.00;29.70;;;;;;5051133;28;20564;-78
2021/05/31 11:04:06;;;;;;;2.50;1.67;;;37.10;30.00;;;;;;5034916;28;20607;-79
2021/05/31 11:06:41;;;;;;;3.00;1.30;;;37.20;30.30;;;;;;5052243;28;20620;-79
2021/05/31 11:09:20;;;;;;;2.00;1.50;;;37.30;30.40;;;;;;5051540;28;20782;-79
2021/05/31 11:11:54;;;;;;;2.57;1.47;;;37.30;29.90;;;;;;5053105;28;20590;-79
2021/05/31 11:14:28;;;;;;;2.00;1.63;;;37.10;29.50;;;;;;5071447;28;20612;-77
2021/05/31 11:16:57;;;;;;;3.20;1.60;;;36.70;29.20;;;;;;5071204;28;20670;-79
2021/05/31 11:19:39;;;;;;;5.47;1.80;;;36.40;29.40;;;;;;5071362;28;20648;-77
2021/05/31 11:22:25;;;;;;;2.50;2.07;;;36.00;29.50;;;;;;5072291;28;20576;-78
2021/05/31 11:24:56;;;;;;;3.17;2.30;;;35.60;30.00;;;;;;5072238;28;20590;-78
2021/05/31 11:27:24;;;;;;;2.27;2.07;;;35.40;29.90;;;;;;5054570;28;20596;-78
2021/05/31 11:29:51;;;;;;;2.93;2.10;;;35.20;29.90;;;;;;5072659;28;20589;-78
2021/05/31 11:32:18;;;;;;;3.90;2.07;;;34.90;30.20;;;;;;5072199;28;20601;-78
2021/05/31 11:34:59;;;;;;;4.07;2.97;;;34.60;29.90;;;;;;5072854;28;20600;-79
2021/05/31 11:37:28;;;;;;;5.30;2.23;;;34.00;30.10;;;;;;5071833;28;20564;-78
2021/05/31 11:40:33;;;;;;;2.57;1.90;;;33.40;30.00;;;;;;5070897;28;20673;-78
2021/05/31 11:43:31;;;;;;;2.43;2.20;;;32.90;30.60;;;;;;5039117;28;20598;-78
2021/05/31 11:45:57;;;;;;;3.30;1.67;;;32.50;31.30;;;;;;5072139;28;20648;-78
2021/05/31 11:48:23;;;;;;;3.90;2.07;;;32.40;32.10;;;;;;5070237;28;20719;-77
2021/05/31 11:50:48;;;;;;;2.13;1.80;;;32.40;32.30;;;;;;5059716;28;20636;-78
2021/05/31 11:53:17;;;;;;;2.83;2.00;;;32.30;32.30;;;;;;5070349;28;20542;-77
2021/05/31 11:55:43;;;;;;;3.07;2.20;;;32.30;32.90;;;;;;5063992;28;20627;-76
2021/05/31 11:58:10;;;;;;;2.90;2.03;;;32.40;33.40;;;;;;5049885;28;20655;-77
2021/05/31 12:00:39;;;;;;;2.47;1.90;;;32.40;32.90;;;;;;5051837;28;21007;-78
2021/05/31 12:03:05;;;;;;;2.20;1.40;;;32.20;32.60;;;;;;5070509;28;20586;-79
2021/05/31 12:05:35;;;;;;;3.07;1.97;;;32.10;32.90;;;;;;5041658;28;21206;-76
2021/05/31 12:08:09;;;;;;;2.00;1.73;;;31.90;32.60;;;;;;5056570;28;20707;-76
2021/05/31 12:10:35;;;;;;;2.30;1.90;;;31.70;32.60;;;;;;5069397;28;20590;-77
2021/05/31 12:13:01;;;;;;;3.30;1.80;;;31.20;32.20;;;;;;5057902;28;20591;-75
2021/05/31 12:15:27;;;;;;;3.00;1.77;;;30.80;32.60;;;;;;5051266;28;20756;-76
2021/05/31 12:17:54;;;;;;;3.20;2.13;;;30.60;32.90;;;;;;5060265;28;20587;-78
2021/05/31 12:20:27;;;;;;;3.07;1.90;;;30.20;33.40;;;;;;5066215;28;20584;-78
2021/05/31 12:22:54;;;;;;;3.30;2.03;;;29.90;33.50;;;;;;5066790;28;20942;-78
2021/05/31 12:25:21;;;;;;;2.20;2.00;;;29.70;33.70;;;;;;5051084;28;20692;-78
2021/05/31 12:27:47;;;;;;;3.17;2.17;;;29.70;34.10;;;;;;5050864;28;20563;-76
2021/05/31 12:30:16;;;;;;;2.37;1.90;;;29.70;35.30;;;;;;5051266;28;20639;-78
2021/05/31 12:32:43;;;;;;;4.10;2.43;;;29.80;35.50;;;;;;5052336;28;20608;-77
2021/05/31 12:35:10;;;;;;;2.37;1.70;;;29.90;35.90;;;;;;5070449;28;20638;-77
2021/05/31 12:37:41;;;;;;;2.20;2.00;;;30.10;36.20;;;;;;5070369;28;20566;-77
2021/05/31 12:40:13;;;;;;;2.03;1.60;;;30.30;35.90;;;;;;5070446;28;21187;-78
2021/05/31 12:42:40;;;;;;;5.67;1.67;;;30.30;35.50;;;;;;5062863;28;21071;-78
2021/05/31 12:45:08;;;;;;;2.30;1.80;;;30.40;35.10;;;;;;5069986;28;20951;-78
2021/05/31 12:47:36;;;;;;;7.13;1.80;;;30.30;34.50;;;;;;5070455;28;21179;-78
2021/05/31 12:50:08;;;;;;;2.70;1.80;;;30.10;34.40;;;;;;5069869;28;20609;-78
2021/05/31 12:52:38;;;;;;;3.20;1.90;;;30.00;34.20;;;;;;5070675;28;20570;-79
2021/05/31 12:55:14;;;;;;;1.87;1.30;;;29.90;34.10;;;;;;5069148;28;20622;-78
2021/05/31 12:57:45;;;;;;;2.13;1.47;;;29.70;34.10;;;;;;5068631;28;20583;-79
2021/05/31 13:00:14;;;;;;;3.00;1.43;;;29.50;34.20;;;;;;5070984;28;20567;-79
2021/05/31 13:02:45;;;;;;;3.80;2.10;;;29.30;34.50;;;;;;5070821;28;20613;-78
2021/05/31 13:05:13;;;;;;;3.20;1.63;;;29.10;34.70;;;;;;5052851;28;20583;-79
2021/05/31 13:07:41;;;;;;;4.33;1.90;;;28.80;34.60;;;;;;5069002;28;20567;-79
2021/05/31 13:10:12;;;;;;;3.67;2.03;;;28.60;34.60;;;;;;5069884;28;20563;-79
2021/05/31 13:13:00;;;;;;;2.20;2.00;;;28.40;35.20;;;;;;5069432;28;20589;-79